Airfield :
LOGIN :

Register | Disclaimer

   EN    FR    IT 

 










Legend :    VFR   Marginal VFR   IFR   Intensive IFR   Very Intensive IFR
Visi :
Ceiling :
>= 8 km
>= 3000ft
5 to 8 km
1000 to 3000 ft
1500m to 5 km
500 to 1000 ft
800 to 1500m
200 to 500 ft
< 800m
< 200 ft
Symbols :   Thunderstorms  Fog  Heavy snow  Heavy precipitations  Wind > 20 kt
SIGMETs :     Misc.  Thunderstorms  Icing  Turbulence  Mountain Waves  Volcanic Ashes







- Airport Elevation : 3 ft
- IATA code : LWR


EHLW - Leuuwarden Air Base

CURRENT METAR :
  • 190625Z AUTO 04002KT 9999 BKN042 BKN046 10/08 Q1029 BLU 30004KT 9999 SCT035

EXPIRED METARs :
  • 190555Z AUTO 09001KT 9999 OVC045 08/07 Q1029 BLU 30004KT 9999 SCT035
  • 190525Z AUTO 24001KT 9999 BKN042 BKN047 07/07 Q1029 BLU 30004KT 9999 SCT035
  • 190507Z AUTO 22002KT 9999 SCT035 BKN042 07/06 Q1029 BLU 30004KT 9999 SCT035
  • 190455Z AUTO 23002KT 9999 SCT037 BKN042 OVC046 07/07 Q1029 BLU
  • 190425Z AUTO 22001KT 9999 FEW034 SCT040 OVC370 06/06 Q1029 BLU
  • 190355Z AUTO 19002KT 9999 FEW037 SCT042 OVC047 07/06 Q1029 BLU

TAF TAF EHLW
Valid from the 19 at 05:00 until the 19 at 17:00 UTC


190413Z 1905/1917 VRB03KT 9999 SCT038
BECMG 1906/1909 33007KT
No reported NOTAMs for that airfield.



MET'MAP, your aeronautical weather chart ! - Copyright ORBIFLY December 2007 - Disclaimer

ORBIFLY MET'MAP TEAM :

Programming & Development : Alexandra Zaïnal
Concept & Development : Baudouin d'Aumeries
Co-Development & Prog : Marc-Olivier Méhu
Technical & hardware support : Manuel Goepfert

Contact : metmap@orbifly.com




SOURCES & CREDITS :

   NOAA